sensor_id;sensor_type;location;lat;lon;timestamp;pressure;altitude;pressure_sealevel;temperature;humidity
58622;BME280;44389;51.578;5.456;2023-03-20T00:00:43;101883.06;;;6.89;100.00
58622;BME280;44389;51.578;5.456;2023-03-20T00:03:10;101884.66;;;6.87;100.00
58622;BME280;44389;51.578;5.456;2023-03-20T00:05:36;101885.53;;;6.87;100.00
58622;BME280;44389;51.578;5.456;2023-03-20T00:08:01;101884.75;;;6.88;100.00
58622;BME280;44389;51.578;5.456;2023-03-20T00:10:33;101883.75;;;6.86;100.00
58622;BME280;44389;51.578;5.456;2023-03-20T00:12:59;101879.72;;;6.90;100.00
58622;BME280;44389;51.578;5.456;2023-03-20T00:15:36;101882.38;;;6.91;100.00
58622;BME280;44389;51.578;5.456;2023-03-20T00:18:03;101874.59;;;6.90;100.00
58622;BME280;44389;51.578;5.456;2023-03-20T00:20:36;101876.28;;;6.89;100.00
58622;BME280;44389;51.578;5.456;2023-03-20T00:23:01;101876.44;;;6.92;100.00
58622;BME280;44389;51.578;5.456;2023-03-20T00:25:28;101865.22;;;6.90;100.00
58622;BME280;44389;51.578;5.456;2023-03-20T00:27:53;101865.22;;;6.90;100.00
58622;BME280;44389;51.578;5.456;2023-03-20T00:32:47;101856.72;;;6.91;100.00
58622;BME280;44389;51.578;5.456;2023-03-20T00:35:27;101860.28;;;6.94;100.00
58622;BME280;44389;51.578;5.456;2023-03-20T00:37:54;101851.69;;;6.93;100.00
58622;BME280;44389;51.578;5.456;2023-03-20T00:40:20;101838.78;;;6.91;100.00
58622;BME280;44389;51.578;5.456;2023-03-20T00:42:49;101843.84;;;6.90;100.00
58622;BME280;44389;51.578;5.456;2023-03-20T00:45:19;101840.28;;;6.88;100.00
58622;BME280;44389;51.578;5.456;2023-03-20T00:47:47;101832.94;;;6.79;100.00
58622;BME280;44389;51.578;5.456;2023-03-20T00:50:16;101824.66;;;6.70;100.00
58622;BME280;44389;51.578;5.456;2023-03-20T00:52:42;101820.16;;;6.66;100.00
58622;BME280;44389;51.578;5.456;2023-03-20T00:55:09;101829.06;;;6.57;100.00
58622;BME280;44389;51.578;5.456;2023-03-20T00:58:03;101839.09;;;6.54;100.00
58622;BME280;44389;51.578;5.456;2023-03-20T01:00:41;101845.94;;;6.40;100.00
58622;BME280;44389;51.578;5.456;2023-03-20T01:05:37;101870.06;;;6.31;100.00
58622;BME280;44389;51.578;5.456;2023-03-20T01:08:09;101876.56;;;6.25;100.00
58622;BME280;44389;51.578;5.456;2023-03-20T01:10:35;101895.00;;;6.20;100.00
58622;BME280;44389;51.578;5.456;2023-03-20T01:13:01;101891.25;;;6.15;100.00
58622;BME280;44389;51.578;5.456;2023-03-20T01:15:30;101896.06;;;6.10;100.00
58622;BME280;44389;51.578;5.456;2023-03-20T01:17:56;101890.94;;;6.10;100.00
58622;BME280;44389;51.578;5.456;2023-03-20T01:20:24;101874.41;;;6.05;100.00
58622;BME280;44389;51.578;5.456;2023-03-20T01:22:50;101864.00;;;6.02;100.00
58622;BME280;44389;51.578;5.456;2023-03-20T01:25:16;101861.00;;;5.96;100.00
58622;BME280;44389;51.578;5.456;2023-03-20T01:27:44;101865.72;;;5.89;100.00
58622;BME280;44389;51.578;5.456;2023-03-20T01:30:23;101864.53;;;5.84;100.00
58622;BME280;44389;51.578;5.456;2023-03-20T01:32:49;101870.22;;;5.80;100.00
58622;BME280;44389;51.578;5.456;2023-03-20T01:35:17;101879.38;;;5.76;100.00
58622;BME280;44389;51.578;5.456;2023-03-20T01:37:42;101883.28;;;5.71;100.00
58622;BME280;44389;51.578;5.456;2023-03-20T01:42:39;101881.31;;;5.67;100.00
58622;BME280;44389;51.578;5.456;2023-03-20T01:45:15;101884.34;;;5.61;100.00
58622;BME280;44389;51.578;5.456;2023-03-20T01:47:41;101876.47;;;5.58;100.00
58622;BME280;44389;51.578;5.456;2023-03-20T01:50:27;101876.47;;;5.58;100.00
58622;BME280;44389;51.578;5.456;2023-03-20T01:53:00;101862.50;;;5.53;100.00
58622;BME280;44389;51.578;5.456;2023-03-20T01:55:27;101851.09;;;5.48;100.00
58622;BME280;44389;51.578;5.456;2023-03-20T01:57:53;101877.66;;;5.50;100.00
58622;BME280;44389;51.578;5.456;2023-03-20T02:00:21;101870.53;;;5.46;100.00
58622;BME280;44389;51.578;5.456;2023-03-20T02:02:48;101876.47;;;5.45;100.00
58622;BME280;44389;51.578;5.456;2023-03-20T02:05:17;101863.44;;;5.42;100.00
58622;BME280;44389;51.578;5.456;2023-03-20T02:07:48;101864.03;;;5.38;100.00
58622;BME280;44389;51.578;5.456;2023-03-20T02:10:15;101855.38;;;5.36;100.00
58622;BME280;44389;51.578;5.456;2023-03-20T02:12:42;101854.31;;;5.32;100.00
58622;BME280;44389;51.578;5.456;2023-03-20T02:15:07;101870.31;;;5.30;100.00
58622;BME280;44389;51.578;5.456;2023-03-20T02:17:33;101871.00;;;5.27;100.00
58622;BME280;44389;51.578;5.456;2023-03-20T02:32:17;101890.69;;;5.16;100.00
58622;BME280;44389;51.578;5.456;2023-03-20T02:34:58;101883.03;;;5.16;100.00
58622;BME280;44389;51.578;5.456;2023-03-20T02:38:03;101884.81;;;5.17;100.00
58622;BME280;44389;51.578;5.456;2023-03-20T02:43:21;101883.84;;;5.15;100.00
58622;BME280;44389;51.578;5.456;2023-03-20T02:49:17;101857.47;;;5.16;100.00
58622;BME280;44389;51.578;5.456;2023-03-20T02:54:37;101855.72;;;5.15;100.00
58622;BME280;44389;51.578;5.456;2023-03-20T02:59:37;101855.50;;;5.12;100.00
58622;BME280;44389;51.578;5.456;2023-03-20T03:02:13;101850.88;;;5.06;100.00
58622;BME280;44389;51.578;5.456;2023-03-20T03:04:47;101853.53;;;5.08;100.00
58622;BME280;44389;51.578;5.456;2023-03-20T03:07:18;101854.88;;;5.03;100.00
58622;BME280;44389;51.578;5.456;2023-03-20T03:09:51;101852.91;;;4.99;100.00
58622;BME280;44389;51.578;5.456;2023-03-20T03:12:20;101843.56;;;4.99;100.00
58622;BME280;44389;51.578;5.456;2023-03-20T03:14:53;101835.03;;;4.99;100.00
58622;BME280;44389;51.578;5.456;2023-03-20T03:17:22;101834.00;;;4.97;100.00
58622;BME280;44389;51.578;5.456;2023-03-20T03:19:52;101828.13;;;4.98;100.00
58622;BME280;44389;51.578;5.456;2023-03-20T03:22:18;101815.56;;;5.01;100.00
58622;BME280;44389;51.578;5.456;2023-03-20T03:24:46;101821.56;;;5.01;100.00
58622;BME280;44389;51.578;5.456;2023-03-20T03:27:17;101804.47;;;5.00;100.00
58622;BME280;44389;51.578;5.456;2023-03-20T03:29:46;101802.78;;;5.01;100.00
58622;BME280;44389;51.578;5.456;2023-03-20T03:32:26;101807.09;;;5.02;100.00
58622;BME280;44389;51.578;5.456;2023-03-20T03:34:54;101824.03;;;5.00;100.00
58622;BME280;44389;51.578;5.456;2023-03-20T03:37:28;101813.56;;;4.97;100.00
58622;BME280;44389;51.578;5.456;2023-03-20T03:42:29;101809.25;;;4.95;100.00
58622;BME280;44389;51.578;5.456;2023-03-20T03:45:07;101810.06;;;4.94;100.00
58622;BME280;44389;51.578;5.456;2023-03-20T03:47:38;101806.50;;;4.92;100.00
58622;BME280;44389;51.578;5.456;2023-03-20T03:50:13;101810.94;;;4.95;100.00
58622;BME280;44389;51.578;5.456;2023-03-20T03:52:41;101809.81;;;4.91;100.00
58622;BME280;44389;51.578;5.456;2023-03-20T03:55:10;101811.59;;;4.92;100.00
58622;BME280;44389;51.578;5.456;2023-03-20T03:57:59;101810.06;;;4.94;100.00
58622;BME280;44389;51.578;5.456;2023-03-20T04:00:26;101807.94;;;4.89;100.00
58622;BME280;44389;51.578;5.456;2023-03-20T04:02:55;101813.84;;;4.88;100.00
58622;BME280;44389;51.578;5.456;2023-03-20T04:05:21;101817.19;;;4.87;100.00
58622;BME280;44389;51.578;5.456;2023-03-20T04:07:53;101801.06;;;4.88;100.00
58622;BME280;44389;51.578;5.456;2023-03-20T04:10:20;101796.75;;;4.87;100.00
58622;BME280;44389;51.578;5.456;2023-03-20T04:12:45;101798.31;;;4.85;100.00
58622;BME280;44389;51.578;5.456;2023-03-20T04:15:12;101797.63;;;4.87;100.00
58622;BME280;44389;51.578;5.456;2023-03-20T04:17:39;101804.41;;;4.87;100.00
58622;BME280;44389;51.578;5.456;2023-03-20T04:20:05;101790.75;;;4.86;100.00
58622;BME280;44389;51.578;5.456;2023-03-20T04:22:30;101788.97;;;4.85;100.00
58622;BME280;44389;51.578;5.456;2023-03-20T04:24:59;101790.84;;;4.88;100.00
58622;BME280;44389;51.578;5.456;2023-03-20T04:27:24;101799.84;;;4.83;100.00
58622;BME280;44389;51.578;5.456;2023-03-20T04:29:50;101800.00;;;4.84;100.00
58622;BME280;44389;51.578;5.456;2023-03-20T04:32:15;101800.44;;;4.78;100.00
58622;BME280;44389;51.578;5.456;2023-03-20T04:34:40;101787.56;;;4.77;100.00
58622;BME280;44389;51.578;5.456;2023-03-20T04:37:06;101784.16;;;4.76;100.00
58622;BME280;44389;51.578;5.456;2023-03-20T04:39:32;101784.16;;;4.76;100.00
58622;BME280;44389;51.578;5.456;2023-03-20T04:41:58;101789.69;;;4.71;100.00
58622;BME280;44389;51.578;5.456;2023-03-20T04:44:23;101784.59;;;4.71;100.00
58622;BME280;44389;51.578;5.456;2023-03-20T04:46:48;101781.06;;;4.69;100.00
58622;BME280;44389;51.578;5.456;2023-03-20T04:49:14;101780.16;;;4.68;100.00
58622;BME280;44389;51.578;5.456;2023-03-20T04:51:39;101767.28;;;4.67;100.00
58622;BME280;44389;51.578;5.456;2023-03-20T04:54:05;101764.84;;;4.68;100.00
58622;BME280;44389;51.578;5.456;2023-03-20T04:56:30;101758.75;;;4.66;100.00
58622;BME280;44389;51.578;5.456;2023-03-20T04:58:55;101766.41;;;4.66;100.00
58622;BME280;44389;51.578;5.456;2023-03-20T05:01:21;101777.50;;;4.67;100.00
58622;BME280;44389;51.578;5.456;2023-03-20T05:03:47;101784.41;;;4.68;100.00
58622;BME280;44389;51.578;5.456;2023-03-20T05:06:12;101787.72;;;4.67;100.00
58622;BME280;44389;51.578;5.456;2023-03-20T05:08:38;101789.50;;;4.68;100.00
58622;BME280;44389;51.578;5.456;2023-03-20T05:11:03;101781.06;;;4.69;100.00
58622;BME280;44389;51.578;5.456;2023-03-20T05:13:28;101772.59;;;4.70;100.00
58622;BME280;44389;51.578;5.456;2023-03-20T05:15:54;101782.03;;;4.71;100.00
58622;BME280;44389;51.578;5.456;2023-03-20T05:18:20;101768.41;;;4.70;100.00
58622;BME280;44389;51.578;5.456;2023-03-20T05:20:47;101767.72;;;4.73;100.00
58622;BME280;44389;51.578;5.456;2023-03-20T05:23:13;101753.50;;;4.76;100.00
58622;BME280;44389;51.578;5.456;2023-03-20T05:25:38;101757.69;;;4.76;100.00
58622;BME280;44389;51.578;5.456;2023-03-20T05:28:03;101768.81;;;4.76;100.00
58622;BME280;44389;51.578;5.456;2023-03-20T05:30:29;101773.94;;;4.76;100.00
58622;BME280;44389;51.578;5.456;2023-03-20T05:32:54;101767.13;;;4.77;100.00
58622;BME280;44389;51.578;5.456;2023-03-20T05:35:20;101766.38;;;4.78;100.00
58622;BME280;44389;51.578;5.456;2023-03-20T05:37:46;101763.03;;;4.79;100.00
58622;BME280;44389;51.578;5.456;2023-03-20T05:40:13;101765.69;;;4.81;100.00
58622;BME280;44389;51.578;5.456;2023-03-20T05:42:38;101768.34;;;4.82;100.00
58622;BME280;44389;51.578;5.456;2023-03-20T05:45:04;101760.69;;;4.82;100.00
58622;BME280;44389;51.578;5.456;2023-03-20T05:47:30;101771.91;;;4.84;100.00
58622;BME280;44389;51.578;5.456;2023-03-20T05:49:55;101760.78;;;4.84;100.00
58622;BME280;44389;51.578;5.456;2023-03-20T05:52:21;101778.88;;;4.87;100.00
58622;BME280;44389;51.578;5.456;2023-03-20T05:54:47;101779.75;;;4.87;100.00
58622;BME280;44389;51.578;5.456;2023-03-20T05:57:12;101778.06;;;4.88;100.00
58622;BME280;44389;51.578;5.456;2023-03-20T05:59:37;101793.53;;;4.89;100.00
58622;BME280;44389;51.578;5.456;2023-03-20T06:02:03;101792.84;;;4.92;100.00
58622;BME280;44389;51.578;5.456;2023-03-20T06:04:28;101791.34;;;4.95;100.00
58622;BME280;44389;51.578;5.456;2023-03-20T06:06:53;101790.59;;;4.97;100.00
58622;BME280;44389;51.578;5.456;2023-03-20T06:09:19;101785.56;;;4.98;100.00
58622;BME280;44389;51.578;5.456;2023-03-20T06:11:44;101797.66;;;5.01;100.00
58622;BME280;44389;51.578;5.456;2023-03-20T06:14:10;101797.91;;;5.04;100.00
58622;BME280;44389;51.578;5.456;2023-03-20T06:16:35;101797.91;;;5.04;100.00
58622;BME280;44389;51.578;5.456;2023-03-20T06:19:01;101803.28;;;5.08;100.00
58622;BME280;44389;51.578;5.456;2023-03-20T06:21:27;101808.63;;;5.11;100.00
58622;BME280;44389;51.578;5.456;2023-03-20T06:23:52;101807.94;;;5.14;100.00
58622;BME280;44389;51.578;5.456;2023-03-20T06:26:19;101810.59;;;5.16;100.00
58622;BME280;44389;51.578;5.456;2023-03-20T06:28:44;101813.25;;;5.17;100.00
58622;BME280;44389;51.578;5.456;2023-03-20T06:31:09;101817.78;;;5.21;100.00
58622;BME280;44389;51.578;5.456;2023-03-20T06:33:35;101813.00;;;5.26;100.00
58622;BME280;44389;51.578;5.456;2023-03-20T06:36:02;101813.88;;;5.26;100.00
58622;BME280;44389;51.578;5.456;2023-03-20T06:38:28;101824.22;;;5.28;100.00
58622;BME280;44389;51.578;5.456;2023-03-20T06:40:53;101819.38;;;5.33;100.00
58622;BME280;44389;51.578;5.456;2023-03-20T06:43:19;101816.06;;;5.34;100.00
58622;BME280;44389;51.578;5.456;2023-03-20T06:45:44;101829.03;;;5.37;100.00
58622;BME280;44389;51.578;5.456;2023-03-20T06:48:09;101833.56;;;5.41;100.00
58622;BME280;44389;51.578;5.456;2023-03-20T06:50:35;101833.00;;;5.45;100.00
58622;BME280;44389;51.578;5.456;2023-03-20T06:53:01;101839.69;;;5.56;100.00
58622;BME280;44389;51.578;5.456;2023-03-20T06:55:27;101846.56;;;5.57;100.00
58622;BME280;44389;51.578;5.456;2023-03-20T06:57:52;101842.56;;;5.61;100.00
58622;BME280;44389;51.578;5.456;2023-03-20T07:00:18;101843.84;;;5.68;100.00
58622;BME280;44389;51.578;5.456;2023-03-20T07:02:44;101851.31;;;5.65;100.00
58622;BME280;44389;51.578;5.456;2023-03-20T07:05:10;101848.75;;;5.65;100.00
58622;BME280;44389;51.578;5.456;2023-03-20T07:07:35;101848.94;;;5.68;100.00
58622;BME280;44389;51.578;5.456;2023-03-20T07:10:01;101849.84;;;5.68;100.00
58622;BME280;44389;51.578;5.456;2023-03-20T07:12:26;101854.16;;;5.69;100.00
58622;BME280;44389;51.578;5.456;2023-03-20T07:14:53;101855.94;;;5.70;100.00
58622;BME280;44389;51.578;5.456;2023-03-20T07:17:18;101861.38;;;5.75;100.00
58622;BME280;44389;51.578;5.456;2023-03-20T07:19:43;101863.44;;;5.81;100.00
58622;BME280;44389;51.578;5.456;2023-03-20T07:22:18;101869.81;;;5.87;100.00
58622;BME280;44389;51.578;5.456;2023-03-20T07:24:45;101853.91;;;5.91;100.00
58622;BME280;44389;51.578;5.456;2023-03-20T07:27:10;101854.78;;;5.92;100.00
58622;BME280;44389;51.578;5.456;2023-03-20T07:29:36;101867.69;;;5.93;100.00
58622;BME280;44389;51.578;5.456;2023-03-20T07:32:02;101865.47;;;5.98;100.00
58622;BME280;44389;51.578;5.456;2023-03-20T07:34:27;101859.84;;;6.04;100.00
58622;BME280;44389;51.578;5.456;2023-03-20T07:36:52;101864.47;;;6.09;100.00
58622;BME280;44389;51.578;5.456;2023-03-20T07:39:18;101867.31;;;6.14;100.00
58622;BME280;44389;51.578;5.456;2023-03-20T07:41:43;101864.47;;;6.23;100.00
58622;BME280;44389;51.578;5.456;2023-03-20T07:44:08;101863.88;;;6.27;100.00
58622;BME280;44389;51.578;5.456;2023-03-20T07:46:34;101855.41;;;6.28;100.00
58622;BME280;44389;51.578;5.456;2023-03-20T07:49:00;101864.09;;;6.30;100.00
58622;BME280;44389;51.578;5.456;2023-03-20T07:51:25;101861.63;;;6.32;100.00
58622;BME280;44389;51.578;5.456;2023-03-20T07:53:50;101859.06;;;6.32;100.00
58622;BME280;44389;51.578;5.456;2023-03-20T07:56:16;101852.75;;;6.26;100.00
58622;BME280;44389;51.578;5.456;2023-03-20T07:58:41;101859.44;;;6.24;100.00
58622;BME280;44389;51.578;5.456;2023-03-20T08:01:14;101861.03;;;6.22;100.00
58622;BME280;44389;51.578;5.456;2023-03-20T08:03:39;101860.34;;;6.25;100.00
58622;BME280;44389;51.578;5.456;2023-03-20T08:06:05;101862.22;;;6.28;100.00
58622;BME280;44389;51.578;5.456;2023-03-20T08:08:32;101860.69;;;6.31;100.00
58622;BME280;44389;51.578;5.456;2023-03-20T08:10:58;101856.28;;;6.29;100.00
58622;BME280;44389;51.578;5.456;2023-03-20T08:13:23;101858.97;;;6.30;100.00
58622;BME280;44389;51.578;5.456;2023-03-20T08:15:48;101858.97;;;6.30;100.00
58622;BME280;44389;51.578;5.456;2023-03-20T08:18:14;101870.25;;;6.34;100.00
58622;BME280;44389;51.578;5.456;2023-03-20T08:20:39;101860.00;;;6.34;100.00
58622;BME280;44389;51.578;5.456;2023-03-20T08:23:04;101860.13;;;6.35;100.00
58622;BME280;44389;51.578;5.456;2023-03-20T08:25:30;101857.66;;;6.37;100.00
58622;BME280;44389;51.578;5.456;2023-03-20T08:27:58;101860.41;;;6.40;100.00
58622;BME280;44389;51.578;5.456;2023-03-20T08:30:24;101863.19;;;6.43;100.00
58622;BME280;44389;51.578;5.456;2023-03-20T08:32:50;101855.84;;;6.49;100.00
58622;BME280;44389;51.578;5.456;2023-03-20T08:35:15;101861.38;;;6.55;100.00
58622;BME280;44389;51.578;5.456;2023-03-20T08:37:40;101858.03;;;6.56;100.00
58622;BME280;44389;51.578;5.456;2023-03-20T08:40:06;101862.06;;;6.66;100.00
58622;BME280;44389;51.578;5.456;2023-03-20T08:42:31;101870.78;;;6.70;100.00
58622;BME280;44389;51.578;5.456;2023-03-20T08:44:57;101869.13;;;6.70;100.00
58622;BME280;44389;51.578;5.456;2023-03-20T08:47:22;101870.78;;;6.70;100.00
58622;BME280;44389;51.578;5.456;2023-03-20T08:49:47;101864.28;;;6.75;100.00
58622;BME280;44389;51.578;5.456;2023-03-20T08:52:13;101861.81;;;6.77;100.00
58622;BME280;44389;51.578;5.456;2023-03-20T08:54:38;101861.22;;;6.81;100.00
58622;BME280;44389;51.578;5.456;2023-03-20T08:57:03;101858.84;;;6.84;100.00
58622;BME280;44389;51.578;5.456;2023-03-20T08:59:29;101865.41;;;6.94;100.00
58622;BME280;44389;51.578;5.456;2023-03-20T09:01:55;101852.78;;;6.97;100.00
58622;BME280;44389;51.578;5.456;2023-03-20T09:04:20;101852.16;;;7.01;99.88
58622;BME280;44389;51.578;5.456;2023-03-20T09:06:46;101850.34;;;7.13;100.00
58622;BME280;44389;51.578;5.456;2023-03-20T09:09:11;101849.72;;;7.17;99.73
58622;BME280;44389;51.578;5.456;2023-03-20T09:11:40;101856.63;;;7.18;98.77
58622;BME280;44389;51.578;5.456;2023-03-20T09:14:06;101859.97;;;7.17;98.59
58622;BME280;44389;51.578;5.456;2023-03-20T09:16:31;101866.69;;;7.15;98.29
58622;BME280;44389;51.578;5.456;2023-03-20T09:18:57;101863.50;;;7.04;99.14
58622;BME280;44389;51.578;5.456;2023-03-20T09:21:22;101865.22;;;6.90;100.00
58622;BME280;44389;51.578;5.456;2023-03-20T09:23:48;101874.91;;;6.81;100.00
58622;BME280;44389;51.578;5.456;2023-03-20T09:26:13;101874.03;;;6.67;100.00
58622;BME280;44389;51.578;5.456;2023-03-20T09:28:38;101876.72;;;6.55;100.00
58622;BME280;44389;51.578;5.456;2023-03-20T09:31:04;101870.53;;;6.52;100.00
58622;BME280;44389;51.578;5.456;2023-03-20T09:33:30;101871.03;;;6.46;100.00
58622;BME280;44389;51.578;5.456;2023-03-20T09:35:55;101871.56;;;6.40;100.00
58622;BME280;44389;51.578;5.456;2023-03-20T09:38:21;101875.38;;;6.34;100.00
58622;BME280;44389;51.578;5.456;2023-03-20T09:40:51;101876.75;;;6.29;100.00
58622;BME280;44389;51.578;5.456;2023-03-20T09:43:54;101882.09;;;6.32;100.00
58622;BME280;44389;51.578;5.456;2023-03-20T09:49:13;101881.00;;;6.28;100.00
58622;BME280;44389;51.578;5.456;2023-03-20T09:51:50;101879.63;;;6.33;100.00
58622;BME280;44389;51.578;5.456;2023-03-20T09:56:49;101879.31;;;6.42;100.00
58622;BME280;44389;51.578;5.456;2023-03-20T09:59:17;101873.69;;;6.48;100.00
58622;BME280;44389;51.578;5.456;2023-03-20T10:01:56;101877.94;;;6.47;100.00
58622;BME280;44389;51.578;5.456;2023-03-20T10:04:25;101873.78;;;6.49;100.00
58622;BME280;44389;51.578;5.456;2023-03-20T10:06:52;101866.09;;;6.49;100.00
58622;BME280;44389;51.578;5.456;2023-03-20T10:20:42;101858.19;;;6.59;100.00
58622;BME280;44389;51.578;5.456;2023-03-20T10:26:11;101856.50;;;6.73;100.00
58622;BME280;44389;51.578;5.456;2023-03-20T10:28:42;101849.97;;;6.79;100.00
58622;BME280;44389;51.578;5.456;2023-03-20T10:31:18;101845.38;;;6.73;100.00
58622;BME280;44389;51.578;5.456;2023-03-20T10:37:13;101853.66;;;6.69;100.00
58622;BME280;44389;51.578;5.456;2023-03-20T10:42:20;101847.47;;;6.65;100.00
58622;BME280;44389;51.578;5.456;2023-03-20T10:45:01;101843.22;;;6.66;100.00
58622;BME280;44389;51.578;5.456;2023-03-20T10:47:32;101848.25;;;6.64;100.00
58622;BME280;44389;51.578;5.456;2023-03-20T10:50:06;101846.06;;;6.70;100.00
58622;BME280;44389;51.578;5.456;2023-03-20T10:52:37;101842.03;;;6.74;100.00
58622;BME280;44389;51.578;5.456;2023-03-20T10:55:09;101854.63;;;6.84;100.00
58622;BME280;44389;51.578;5.456;2023-03-20T10:57:39;101856.88;;;7.08;100.00
58622;BME280;44389;51.578;5.456;2023-03-20T11:00:14;101846.53;;;7.21;100.00
58622;BME280;44389;51.578;5.456;2023-03-20T11:02:43;101846.75;;;7.24;100.00
58622;BME280;44389;51.578;5.456;2023-03-20T11:05:28;101848.69;;;7.29;100.00
58622;BME280;44389;51.578;5.456;2023-03-20T11:08:10;101830.56;;;7.40;100.00
58622;BME280;44389;51.578;5.456;2023-03-20T11:10:37;101831.34;;;7.39;100.00
58622;BME280;44389;51.578;5.456;2023-03-20T11:13:25;101830.22;;;7.49;100.00
58622;BME280;44389;51.578;5.456;2023-03-20T11:15:52;101833.75;;;7.51;100.00
58622;BME280;44389;51.578;5.456;2023-03-20T11:18:18;101836.50;;;7.54;100.00
58622;BME280;44389;51.578;5.456;2023-03-20T11:20:53;101827.81;;;7.52;100.00
58622;BME280;44389;51.578;5.456;2023-03-20T11:23:25;101821.53;;;7.47;100.00
58622;BME280;44389;51.578;5.456;2023-03-20T11:26:05;101821.81;;;7.52;100.00
58622;BME280;44389;51.578;5.456;2023-03-20T11:28:37;101817.72;;;7.70;100.00
58622;BME280;44389;51.578;5.456;2023-03-20T11:31:06;101808.09;;;7.66;100.00
58622;BME280;44389;51.578;5.456;2023-03-20T11:33:59;101799.06;;;7.73;100.00
58622;BME280;44389;51.578;5.456;2023-03-20T11:36:30;101804.81;;;7.69;100.00
58622;BME280;44389;51.578;5.456;2023-03-20T11:39:06;101795.78;;;7.75;100.00
58622;BME280;44389;51.578;5.456;2023-03-20T11:41:31;101792.59;;;7.80;100.00
58622;BME280;44389;51.578;5.456;2023-03-20T11:43:57;101794.16;;;7.93;100.00
58622;BME280;44389;51.578;5.456;2023-03-20T11:46:24;101791.00;;;8.13;100.00
58622;BME280;44389;51.578;5.456;2023-03-20T11:49:06;101792.66;;;8.28;100.00
58622;BME280;44389;51.578;5.456;2023-03-20T11:51:40;101801.63;;;8.19;100.00
58622;BME280;44389;51.578;5.456;2023-03-20T11:54:06;101792.19;;;8.03;99.71
58622;BME280;44389;51.578;5.456;2023-03-20T11:56:54;101793.88;;;8.03;100.00
58622;BME280;44389;51.578;5.456;2023-03-20T11:59:20;101796.44;;;8.03;100.00
58622;BME280;44389;51.578;5.456;2023-03-20T12:01:49;101800.59;;;8.32;100.00
58622;BME280;44389;51.578;5.456;2023-03-20T12:06:56;101794.50;;;8.30;100.00
58622;BME280;44389;51.578;5.456;2023-03-20T12:09:32;101794.53;;;8.47;100.00
58622;BME280;44389;51.578;5.456;2023-03-20T12:12:04;101791.88;;;8.45;99.09
58622;BME280;44389;51.578;5.456;2023-03-20T12:17:29;101787.09;;;8.51;99.59
58622;BME280;44389;51.578;5.456;2023-03-20T12:20:01;101785.97;;;8.46;98.98
58622;BME280;44389;51.578;5.456;2023-03-20T12:22:54;101790.75;;;8.40;99.50
58622;BME280;44389;51.578;5.456;2023-03-20T12:25:21;101789.78;;;8.38;99.16
58622;BME280;44389;51.578;5.456;2023-03-20T12:27:54;101781.44;;;8.42;99.47
58622;BME280;44389;51.578;5.456;2023-03-20T12:30:41;101779.75;;;8.43;98.68
58622;BME280;44389;51.578;5.456;2023-03-20T12:33:21;101782.69;;;8.34;98.49
58622;BME280;44389;51.578;5.456;2023-03-20T12:35:51;101783.53;;;8.33;98.97
58622;BME280;44389;51.578;5.456;2023-03-20T12:38:26;101776.69;;;8.33;98.34
58622;BME280;44389;51.578;5.456;2023-03-20T12:41:24;101772.41;;;8.34;99.14
58622;BME280;44389;51.578;5.456;2023-03-20T12:44:09;101775.78;;;8.16;98.91
58622;BME280;44389;51.578;5.456;2023-03-20T12:52:08;101758.03;;;8.04;100.00
58622;BME280;44389;51.578;5.456;2023-03-20T12:55:05;101758.97;;;8.06;100.00
58622;BME280;44389;51.578;5.456;2023-03-20T12:58:00;101750.22;;;8.03;100.00
58622;BME280;44389;51.578;5.456;2023-03-20T13:03:05;101749.84;;;8.12;100.00
58622;BME280;44389;51.578;5.456;2023-03-20T13:05:37;101748.81;;;8.24;100.00
58622;BME280;44389;51.578;5.456;2023-03-20T13:11:04;101744.41;;;8.53;99.65
58622;BME280;44389;51.578;5.456;2023-03-20T13:13:43;101748.97;;;8.59;98.41
58622;BME280;44389;51.578;5.456;2023-03-20T13:19:10;101741.97;;;8.73;98.12
58622;BME280;44389;51.578;5.456;2023-03-20T13:21:42;101734.09;;;8.70;97.08
58622;BME280;44389;51.578;5.456;2023-03-20T13:29:49;101735.84;;;8.71;96.96
58622;BME280;44389;51.578;5.456;2023-03-20T13:37:40;101713.53;;;9.04;95.30
58622;BME280;44389;51.578;5.456;2023-03-20T13:40:24;101715.41;;;9.25;95.15
58622;BME280;44389;51.578;5.456;2023-03-20T13:45:28;101713.94;;;9.48;92.83
58622;BME280;44389;51.578;5.456;2023-03-20T13:47:55;101716.97;;;9.39;90.92
58622;BME280;44389;51.578;5.456;2023-03-20T13:50:31;101724.47;;;9.35;92.04
58622;BME280;44389;51.578;5.456;2023-03-20T13:56:08;101710.28;;;9.43;92.16
58622;BME280;44389;51.578;5.456;2023-03-20T13:58:51;101713.88;;;9.29;91.53
58622;BME280;44389;51.578;5.456;2023-03-20T14:01:33;101705.19;;;9.27;92.34
58622;BME280;44389;51.578;5.456;2023-03-20T14:04:03;101705.06;;;9.23;92.27
58622;BME280;44389;51.578;5.456;2023-03-20T14:08:54;101706.00;;;9.26;92.57
58622;BME280;44389;51.578;5.456;2023-03-20T14:14:13;101698.13;;;9.22;89.17
58622;BME280;44389;51.578;5.456;2023-03-20T14:16:39;101699.28;;;9.11;87.78
58622;BME280;44389;51.578;5.456;2023-03-20T14:21:34;101706.31;;;8.97;90.13
58622;BME280;44389;51.578;5.456;2023-03-20T14:24:02;101704.53;;;8.78;92.53
58622;BME280;44389;51.578;5.456;2023-03-20T14:26:31;101698.75;;;8.66;96.48
58622;BME280;44389;51.578;5.456;2023-03-20T14:31:34;101694.47;;;8.48;98.67
58622;BME280;44389;51.578;5.456;2023-03-20T14:41:55;101678.94;;;8.30;100.00
58622;BME280;44389;51.578;5.456;2023-03-20T14:44:48;101681.59;;;8.32;100.00
58622;BME280;44389;51.578;5.456;2023-03-20T14:50:21;101672.56;;;8.40;100.00
58622;BME280;44389;51.578;5.456;2023-03-20T14:58:41;101677.75;;;8.56;100.00
58622;BME280;44389;51.578;5.456;2023-03-20T15:03:41;101661.84;;;8.64;100.00
58622;BME280;44389;51.578;5.456;2023-03-20T15:06:08;101662.38;;;8.75;100.00